sensor_id;sensor_type;location;lat;lon;timestamp;temperature;humidity
8792;DHT22;4432;50.890;4.744;2023-04-03T00:01:37;0.20;99.90
8792;DHT22;4432;50.890;4.744;2023-04-03T00:04:05;0.10;99.90
8792;DHT22;4432;50.890;4.744;2023-04-03T00:06:31;0.10;99.90
8792;DHT22;4432;50.890;4.744;2023-04-03T00:08:57;0.10;99.90
8792;DHT22;4432;50.890;4.744;2023-04-03T00:11:23;0.10;99.90
8792;DHT22;4432;50.890;4.744;2023-04-03T00:13:49;0.10;99.90
8792;DHT22;4432;50.890;4.744;2023-04-03T00:16:16;0.10;99.90
8792;DHT22;4432;50.890;4.744;2023-04-03T00:18:42;0.10;99.90
8792;DHT22;4432;50.890;4.744;2023-04-03T00:21:09;0.10;99.90
8792;DHT22;4432;50.890;4.744;2023-04-03T00:23:35;0.10;99.90
8792;DHT22;4432;50.890;4.744;2023-04-03T00:26:01;0.10;99.90
8792;DHT22;4432;50.890;4.744;2023-04-03T00:28:27;0.00;99.90
8792;DHT22;4432;50.890;4.744;2023-04-03T00:30:53;0.00;99.90
8792;DHT22;4432;50.890;4.744;2023-04-03T00:33:19;-0.10;99.90
8792;DHT22;4432;50.890;4.744;2023-04-03T00:35:50;-0.10;99.90
8792;DHT22;4432;50.890;4.744;2023-04-03T00:38:17;-0.10;99.90
8792;DHT22;4432;50.890;4.744;2023-04-03T00:40:44;-0.10;99.90
8792;DHT22;4432;50.890;4.744;2023-04-03T00:43:17;-0.20;99.90
8792;DHT22;4432;50.890;4.744;2023-04-03T00:45:47;-0.10;99.90
8792;DHT22;4432;50.890;4.744;2023-04-03T00:50:58;-0.10;99.90
8792;DHT22;4432;50.890;4.744;2023-04-03T00:53:30;-0.10;99.90
8792;DHT22;4432;50.890;4.744;2023-04-03T00:55:56;-0.10;99.90
8792;DHT22;4432;50.890;4.744;2023-04-03T00:58:32;0.00;99.90
8792;DHT22;4432;50.890;4.744;2023-04-03T01:00:59;-0.10;99.90
8792;DHT22;4432;50.890;4.744;2023-04-03T01:03:29;-0.10;99.90
8792;DHT22;4432;50.890;4.744;2023-04-03T01:05:57;0.00;99.90
8792;DHT22;4432;50.890;4.744;2023-04-03T01:08:23;0.00;99.90
8792;DHT22;4432;50.890;4.744;2023-04-03T01:10:49;0.00;99.90
8792;DHT22;4432;50.890;4.744;2023-04-03T01:13:28;0.00;99.90
8792;DHT22;4432;50.890;4.744;2023-04-03T01:15:55;0.00;99.90
8792;DHT22;4432;50.890;4.744;2023-04-03T01:18:24;0.00;99.90
8792;DHT22;4432;50.890;4.744;2023-04-03T01:20:57;-0.10;99.90
8792;DHT22;4432;50.890;4.744;2023-04-03T01:23:40;-0.10;99.90
8792;DHT22;4432;50.890;4.744;2023-04-03T01:26:09;-0.10;99.90
8792;DHT22;4432;50.890;4.744;2023-04-03T01:28:37;0.00;99.90
8792;DHT22;4432;50.890;4.744;2023-04-03T01:33:32;0.10;99.90
8792;DHT22;4432;50.890;4.744;2023-04-03T01:35:58;0.10;99.90
8792;DHT22;4432;50.890;4.744;2023-04-03T01:38:24;0.20;99.90
8792;DHT22;4432;50.890;4.744;2023-04-03T01:40:50;0.30;99.90
8792;DHT22;4432;50.890;4.744;2023-04-03T01:43:16;0.40;99.90
8792;DHT22;4432;50.890;4.744;2023-04-03T01:45:42;0.40;99.90
8792;DHT22;4432;50.890;4.744;2023-04-03T01:48:08;0.40;99.90
8792;DHT22;4432;50.890;4.744;2023-04-03T01:50:33;0.40;99.90
8792;DHT22;4432;50.890;4.744;2023-04-03T01:52:59;0.40;99.90
8792;DHT22;4432;50.890;4.744;2023-04-03T01:55:25;0.30;99.90
8792;DHT22;4432;50.890;4.744;2023-04-03T01:57:51;0.20;99.90
8792;DHT22;4432;50.890;4.744;2023-04-03T02:00:17;0.20;99.90
8792;DHT22;4432;50.890;4.744;2023-04-03T02:02:42;0.20;99.90
8792;DHT22;4432;50.890;4.744;2023-04-03T02:05:08;0.00;99.90
8792;DHT22;4432;50.890;4.744;2023-04-03T02:07:34;-0.10;99.90
8792;DHT22;4432;50.890;4.744;2023-04-03T02:10:00;-0.10;99.90
8792;DHT22;4432;50.890;4.744;2023-04-03T02:12:26;-0.20;99.90
8792;DHT22;4432;50.890;4.744;2023-04-03T02:14:52;-0.20;99.90
8792;DHT22;4432;50.890;4.744;2023-04-03T02:17:17;-0.30;99.90
8792;DHT22;4432;50.890;4.744;2023-04-03T02:19:43;-0.30;99.90
8792;DHT22;4432;50.890;4.744;2023-04-03T02:22:09;-0.30;99.90
8792;DHT22;4432;50.890;4.744;2023-04-03T02:24:35;-0.40;99.90
8792;DHT22;4432;50.890;4.744;2023-04-03T02:27:01;-0.40;99.90
8792;DHT22;4432;50.890;4.744;2023-04-03T02:29:27;-0.50;99.90
8792;DHT22;4432;50.890;4.744;2023-04-03T02:31:53;-0.50;99.90
8792;DHT22;4432;50.890;4.744;2023-04-03T02:34:18;-0.60;99.90
8792;DHT22;4432;50.890;4.744;2023-04-03T02:36:44;-0.70;99.90
8792;DHT22;4432;50.890;4.744;2023-04-03T02:39:10;-0.70;99.90
8792;DHT22;4432;50.890;4.744;2023-04-03T02:41:36;-0.60;99.90
8792;DHT22;4432;50.890;4.744;2023-04-03T02:44:03;-0.70;99.90
8792;DHT22;4432;50.890;4.744;2023-04-03T02:46:29;-0.80;99.90
8792;DHT22;4432;50.890;4.744;2023-04-03T02:48:56;-0.90;99.90
8792;DHT22;4432;50.890;4.744;2023-04-03T02:51:22;-0.80;99.90
8792;DHT22;4432;50.890;4.744;2023-04-03T02:53:49;-0.80;99.90
8792;DHT22;4432;50.890;4.744;2023-04-03T02:56:16;-0.80;99.90
8792;DHT22;4432;50.890;4.744;2023-04-03T02:58:42;-0.80;99.90
8792;DHT22;4432;50.890;4.744;2023-04-03T03:01:08;-0.80;99.90
8792;DHT22;4432;50.890;4.744;2023-04-03T03:03:34;-0.80;99.90
8792;DHT22;4432;50.890;4.744;2023-04-03T03:06:08;-0.80;99.90
8792;DHT22;4432;50.890;4.744;2023-04-03T03:08:35;-0.80;99.90
8792;DHT22;4432;50.890;4.744;2023-04-03T03:11:02;-0.70;99.90
8792;DHT22;4432;50.890;4.744;2023-04-03T03:13:28;-0.60;99.90
8792;DHT22;4432;50.890;4.744;2023-04-03T03:15:54;-0.60;99.90
8792;DHT22;4432;50.890;4.744;2023-04-03T03:18:19;-0.60;99.90
8792;DHT22;4432;50.890;4.744;2023-04-03T03:20:45;-0.60;99.90
8792;DHT22;4432;50.890;4.744;2023-04-03T03:23:11;-0.80;99.90
8792;DHT22;4432;50.890;4.744;2023-04-03T03:25:40;-0.70;99.90
8792;DHT22;4432;50.890;4.744;2023-04-03T03:28:07;-0.80;99.90
8792;DHT22;4432;50.890;4.744;2023-04-03T03:30:33;-0.80;99.90
8792;DHT22;4432;50.890;4.744;2023-04-03T03:32:59;-0.70;99.90
8792;DHT22;4432;50.890;4.744;2023-04-03T03:35:25;-0.70;99.90
8792;DHT22;4432;50.890;4.744;2023-04-03T03:37:51;-0.80;99.90
8792;DHT22;4432;50.890;4.744;2023-04-03T03:40:17;-0.80;99.90
8792;DHT22;4432;50.890;4.744;2023-04-03T03:42:42;-0.70;99.90
8792;DHT22;4432;50.890;4.744;2023-04-03T03:45:09;-0.90;99.90
8792;DHT22;4432;50.890;4.744;2023-04-03T03:47:35;-1.00;99.90
8792;DHT22;4432;50.890;4.744;2023-04-03T03:50:01;-1.10;99.90
8792;DHT22;4432;50.890;4.744;2023-04-03T03:52:27;-1.10;99.90
8792;DHT22;4432;50.890;4.744;2023-04-03T03:54:53;-1.00;99.90
8792;DHT22;4432;50.890;4.744;2023-04-03T03:57:18;-1.10;99.90
8792;DHT22;4432;50.890;4.744;2023-04-03T03:59:44;-1.00;99.90
8792;DHT22;4432;50.890;4.744;2023-04-03T04:02:11;-1.10;99.90
8792;DHT22;4432;50.890;4.744;2023-04-03T04:04:37;-1.20;99.90
8792;DHT22;4432;50.890;4.744;2023-04-03T04:07:03;-1.20;99.90
8792;DHT22;4432;50.890;4.744;2023-04-03T04:09:29;-1.20;99.90
8792;DHT22;4432;50.890;4.744;2023-04-03T04:11:55;-1.20;99.90
8792;DHT22;4432;50.890;4.744;2023-04-03T04:14:21;-1.10;99.90
8792;DHT22;4432;50.890;4.744;2023-04-03T04:16:47;-1.10;99.90
8792;DHT22;4432;50.890;4.744;2023-04-03T04:19:13;-1.20;99.90
8792;DHT22;4432;50.890;4.744;2023-04-03T04:21:39;-1.20;99.90
8792;DHT22;4432;50.890;4.744;2023-04-03T04:24:07;-1.20;99.90
8792;DHT22;4432;50.890;4.744;2023-04-03T04:26:33;-1.20;99.90
8792;DHT22;4432;50.890;4.744;2023-04-03T04:28:59;-1.00;99.90
8792;DHT22;4432;50.890;4.744;2023-04-03T04:31:25;-0.90;99.90
8792;DHT22;4432;50.890;4.744;2023-04-03T04:33:52;-1.00;99.90
8792;DHT22;4432;50.890;4.744;2023-04-03T04:36:18;-1.10;99.90
8792;DHT22;4432;50.890;4.744;2023-04-03T04:38:44;-1.00;99.90
8792;DHT22;4432;50.890;4.744;2023-04-03T04:41:09;-1.00;99.90
8792;DHT22;4432;50.890;4.744;2023-04-03T04:43:35;-0.90;99.90
8792;DHT22;4432;50.890;4.744;2023-04-03T04:46:06;-0.90;99.90
8792;DHT22;4432;50.890;4.744;2023-04-03T04:48:33;-0.90;99.90
8792;DHT22;4432;50.890;4.744;2023-04-03T04:50:59;-0.90;99.90
8792;DHT22;4432;50.890;4.744;2023-04-03T04:53:25;-1.00;99.90
8792;DHT22;4432;50.890;4.744;2023-04-03T04:55:51;-1.10;99.90
8792;DHT22;4432;50.890;4.744;2023-04-03T04:58:18;-1.20;99.90
8792;DHT22;4432;50.890;4.744;2023-04-03T05:00:43;-1.30;99.90
8792;DHT22;4432;50.890;4.744;2023-04-03T05:03:09;-1.30;99.90
8792;DHT22;4432;50.890;4.744;2023-04-03T05:05:35;-1.30;99.90
8792;DHT22;4432;50.890;4.744;2023-04-03T05:08:01;-1.40;99.90
8792;DHT22;4432;50.890;4.744;2023-04-03T05:10:28;-1.30;99.90
8792;DHT22;4432;50.890;4.744;2023-04-03T05:12:54;-1.30;99.90
8792;DHT22;4432;50.890;4.744;2023-04-03T05:15:20;-1.40;99.90
8792;DHT22;4432;50.890;4.744;2023-04-03T05:17:46;-1.30;99.90
8792;DHT22;4432;50.890;4.744;2023-04-03T05:20:12;-1.20;99.90
8792;DHT22;4432;50.890;4.744;2023-04-03T05:22:38;-1.10;99.90
8792;DHT22;4432;50.890;4.744;2023-04-03T05:25:04;-1.00;99.90
8792;DHT22;4432;50.890;4.744;2023-04-03T05:27:30;-1.10;99.90
8792;DHT22;4432;50.890;4.744;2023-04-03T05:29:56;-1.10;99.90
8792;DHT22;4432;50.890;4.744;2023-04-03T05:32:23;-1.20;99.90
8792;DHT22;4432;50.890;4.744;2023-04-03T05:34:50;-1.20;99.90
8792;DHT22;4432;50.890;4.744;2023-04-03T05:37:17;-1.10;99.90
8792;DHT22;4432;50.890;4.744;2023-04-03T05:39:43;-1.00;99.90
8792;DHT22;4432;50.890;4.744;2023-04-03T05:42:08;-0.90;99.90
8792;DHT22;4432;50.890;4.744;2023-04-03T05:44:34;-0.80;99.90
8792;DHT22;4432;50.890;4.744;2023-04-03T05:47:00;-0.80;99.90
8792;DHT22;4432;50.890;4.744;2023-04-03T05:49:26;-0.90;99.90
8792;DHT22;4432;50.890;4.744;2023-04-03T05:51:52;-0.90;99.90
8792;DHT22;4432;50.890;4.744;2023-04-03T05:54:24;-0.90;99.90
8792;DHT22;4432;50.890;4.744;2023-04-03T05:56:51;-0.80;99.90
8792;DHT22;4432;50.890;4.744;2023-04-03T05:59:18;-0.80;99.90
8792;DHT22;4432;50.890;4.744;2023-04-03T06:01:44;-0.70;99.90
8792;DHT22;4432;50.890;4.744;2023-04-03T06:04:11;-0.60;99.90
8792;DHT22;4432;50.890;4.744;2023-04-03T06:06:51;-0.50;99.90
8792;DHT22;4432;50.890;4.744;2023-04-03T06:09:20;-0.40;99.90
8792;DHT22;4432;50.890;4.744;2023-04-03T06:11:46;-0.30;99.90
8792;DHT22;4432;50.890;4.744;2023-04-03T06:14:12;-0.10;99.90
8792;DHT22;4432;50.890;4.744;2023-04-03T06:16:38;0.10;99.90
8792;DHT22;4432;50.890;4.744;2023-04-03T06:19:05;0.30;99.90
8792;DHT22;4432;50.890;4.744;2023-04-03T06:21:31;0.50;99.90
8792;DHT22;4432;50.890;4.744;2023-04-03T06:23:58;0.70;99.90
8792;DHT22;4432;50.890;4.744;2023-04-03T06:26:23;1.20;99.90
8792;DHT22;4432;50.890;4.744;2023-04-03T06:28:49;2.30;99.90
8792;DHT22;4432;50.890;4.744;2023-04-03T06:31:15;3.60;99.90
8792;DHT22;4432;50.890;4.744;2023-04-03T06:33:41;4.30;99.90
8792;DHT22;4432;50.890;4.744;2023-04-03T06:36:07;4.70;99.90
8792;DHT22;4432;50.890;4.744;2023-04-03T06:38:34;4.40;99.90
8792;DHT22;4432;50.890;4.744;2023-04-03T06:41:00;4.10;99.90
8792;DHT22;4432;50.890;4.744;2023-04-03T06:43:26;4.00;99.90
8792;DHT22;4432;50.890;4.744;2023-04-03T06:45:52;4.10;99.90
8792;DHT22;4432;50.890;4.744;2023-04-03T06:48:18;4.50;99.90
8792;DHT22;4432;50.890;4.744;2023-04-03T06:50:43;4.90;99.90
8792;DHT22;4432;50.890;4.744;2023-04-03T06:53:09;5.00;99.90
8792;DHT22;4432;50.890;4.744;2023-04-03T06:55:36;5.20;99.90
8792;DHT22;4432;50.890;4.744;2023-04-03T06:58:03;5.70;99.90
8792;DHT22;4432;50.890;4.744;2023-04-03T07:00:30;5.70;99.90
8792;DHT22;4432;50.890;4.744;2023-04-03T07:02:56;6.40;99.90
8792;DHT22;4432;50.890;4.744;2023-04-03T07:05:23;6.60;99.90
8792;DHT22;4432;50.890;4.744;2023-04-03T07:07:50;6.70;99.90
8792;DHT22;4432;50.890;4.744;2023-04-03T07:10:17;6.30;99.90
8792;DHT22;4432;50.890;4.744;2023-04-03T07:12:43;7.00;99.90
8792;DHT22;4432;50.890;4.744;2023-04-03T07:15:09;6.90;99.90
8792;DHT22;4432;50.890;4.744;2023-04-03T07:17:35;7.30;99.90
8792;DHT22;4432;50.890;4.744;2023-04-03T07:20:02;7.10;99.90
8792;DHT22;4432;50.890;4.744;2023-04-03T07:22:30;6.40;99.90
8792;DHT22;4432;50.890;4.744;2023-04-03T07:24:55;6.30;99.90
8792;DHT22;4432;50.890;4.744;2023-04-03T07:27:21;6.50;99.90
8792;DHT22;4432;50.890;4.744;2023-04-03T07:29:47;6.90;99.90
8792;DHT22;4432;50.890;4.744;2023-04-03T07:32:14;7.40;99.90
8792;DHT22;4432;50.890;4.744;2023-04-03T07:34:41;7.70;99.90
8792;DHT22;4432;50.890;4.744;2023-04-03T07:37:07;7.90;99.90
8792;DHT22;4432;50.890;4.744;2023-04-03T07:39:34;8.10;99.90
8792;DHT22;4432;50.890;4.744;2023-04-03T07:42:00;7.80;99.90
8792;DHT22;4432;50.890;4.744;2023-04-03T07:44:27;7.70;99.90
8792;DHT22;4432;50.890;4.744;2023-04-03T07:46:53;7.50;99.90
8792;DHT22;4432;50.890;4.744;2023-04-03T07:49:21;7.50;99.90
8792;DHT22;4432;50.890;4.744;2023-04-03T07:51:48;7.60;99.90
8792;DHT22;4432;50.890;4.744;2023-04-03T07:54:14;7.70;99.90
8792;DHT22;4432;50.890;4.744;2023-04-03T07:56:41;7.60;99.90
8792;DHT22;4432;50.890;4.744;2023-04-03T07:59:09;8.20;99.90
8792;DHT22;4432;50.890;4.744;2023-04-03T08:01:35;8.20;99.90
8792;DHT22;4432;50.890;4.744;2023-04-03T08:04:01;8.40;99.90
8792;DHT22;4432;50.890;4.744;2023-04-03T08:06:27;8.40;99.90
8792;DHT22;4432;50.890;4.744;2023-04-03T08:08:55;8.70;99.90
8792;DHT22;4432;50.890;4.744;2023-04-03T08:11:21;8.50;99.90
8792;DHT22;4432;50.890;4.744;2023-04-03T08:13:49;8.70;99.90
8792;DHT22;4432;50.890;4.744;2023-04-03T08:16:20;8.90;99.90
8792;DHT22;4432;50.890;4.744;2023-04-03T08:18:47;8.50;99.90
8792;DHT22;4432;50.890;4.744;2023-04-03T08:21:13;8.50;99.90
8792;DHT22;4432;50.890;4.744;2023-04-03T08:23:40;8.60;99.90
8792;DHT22;4432;50.890;4.744;2023-04-03T08:26:14;8.80;99.90
8792;DHT22;4432;50.890;4.744;2023-04-03T08:28:41;8.70;99.90
8792;DHT22;4432;50.890;4.744;2023-04-03T08:31:09;9.10;99.90
8792;DHT22;4432;50.890;4.744;2023-04-03T08:33:37;8.60;99.90
8792;DHT22;4432;50.890;4.744;2023-04-03T08:36:14;8.40;99.90
8792;DHT22;4432;50.890;4.744;2023-04-03T08:38:41;8.50;99.90
8792;DHT22;4432;50.890;4.744;2023-04-03T08:49:45;9.20;99.90
8792;DHT22;4432;50.890;4.744;2023-04-03T08:54:54;9.20;99.90
8792;DHT22;4432;50.890;4.744;2023-04-03T08:57:42;9.60;99.90
8792;DHT22;4432;50.890;4.744;2023-04-03T09:00:21;9.60;99.90
8792;DHT22;4432;50.890;4.744;2023-04-03T09:02:50;9.80;99.90
8792;DHT22;4432;50.890;4.744;2023-04-03T09:05:17;10.00;99.90
8792;DHT22;4432;50.890;4.744;2023-04-03T09:07:47;10.60;99.90
8792;DHT22;4432;50.890;4.744;2023-04-03T09:10:14;10.80;99.90
8792;DHT22;4432;50.890;4.744;2023-04-03T09:12:53;11.50;99.90
8792;DHT22;4432;50.890;4.744;2023-04-03T09:15:22;11.60;99.90
8792;DHT22;4432;50.890;4.744;2023-04-03T09:23:26;9.90;99.90
8792;DHT22;4432;50.890;4.744;2023-04-03T09:26:01;9.80;99.90
8792;DHT22;4432;50.890;4.744;2023-04-03T09:28:30;10.20;99.90
8792;DHT22;4432;50.890;4.744;2023-04-03T09:30:57;10.30;99.90
8792;DHT22;4432;50.890;4.744;2023-04-03T09:33:25;10.50;99.90
8792;DHT22;4432;50.890;4.744;2023-04-03T09:35:51;10.60;99.90
8792;DHT22;4432;50.890;4.744;2023-04-03T09:38:21;10.10;99.90
8792;DHT22;4432;50.890;4.744;2023-04-03T09:43:34;10.20;99.90
8792;DHT22;4432;50.890;4.744;2023-04-03T09:46:36;10.30;99.90
8792;DHT22;4432;50.890;4.744;2023-04-03T09:49:04;10.50;99.90
8792;DHT22;4432;50.890;4.744;2023-04-03T09:51:31;10.40;99.90
8792;DHT22;4432;50.890;4.744;2023-04-03T09:53:57;10.40;99.90
8792;DHT22;4432;50.890;4.744;2023-04-03T09:56:29;10.40;99.90
8792;DHT22;4432;50.890;4.744;2023-04-03T10:01:35;10.00;99.90
8792;DHT22;4432;50.890;4.744;2023-04-03T10:04:16;9.90;99.90
8792;DHT22;4432;50.890;4.744;2023-04-03T10:06:51;9.90;99.90
8792;DHT22;4432;50.890;4.744;2023-04-03T10:14:53;9.60;99.90
8792;DHT22;4432;50.890;4.744;2023-04-03T10:25:55;8.80;99.90
8792;DHT22;4432;50.890;4.744;2023-04-03T10:36:46;9.40;99.90
8792;DHT22;4432;50.890;4.744;2023-04-03T10:39:30;9.40;99.90
8792;DHT22;4432;50.890;4.744;2023-04-03T10:47:31;9.70;99.90
8792;DHT22;4432;50.890;4.744;2023-04-03T10:59:37;9.80;95.90
8792;DHT22;4432;50.890;4.744;2023-04-03T11:01:38;9.30;97.50
8792;DHT22;4432;50.890;4.744;2023-04-03T11:04:06;9.40;96.10
8792;DHT22;4432;50.890;4.744;2023-04-03T11:11:53;9.90;94.70
8792;DHT22;4432;50.890;4.744;2023-04-03T11:14:41;9.80;94.00
8792;DHT22;4432;50.890;4.744;2023-04-03T11:27:25;9.40;72.90
8792;DHT22;4432;50.890;4.744;2023-04-03T11:29:53;9.10;67.60
8792;DHT22;4432;50.890;4.744;2023-04-03T11:35:00;9.40;75.50
8792;DHT22;4432;50.890;4.744;2023-04-03T11:37:48;9.60;77.10
8792;DHT22;4432;50.890;4.744;2023-04-03T11:42:49;9.70;65.50
8792;DHT22;4432;50.890;4.744;2023-04-03T11:48:01;10.30;78.40
8792;DHT22;4432;50.890;4.744;2023-04-03T11:53:03;10.10;62.70
8792;DHT22;4432;50.890;4.744;2023-04-03T12:05:53;10.60;58.10
8792;DHT22;4432;50.890;4.744;2023-04-03T12:08:43;10.10;50.30
8792;DHT22;4432;50.890;4.744;2023-04-03T12:13:36;10.10;54.00
8792;DHT22;4432;50.890;4.744;2023-04-03T12:16:22;10.20;49.70
8792;DHT22;4432;50.890;4.744;2023-04-03T12:21:16;10.20;51.30
8792;DHT22;4432;50.890;4.744;2023-04-03T12:26:44;10.20;40.20
8792;DHT22;4432;50.890;4.744;2023-04-03T12:29:34;10.10;42.80
8792;DHT22;4432;50.890;4.744;2023-04-03T12:54:32;10.10;34.90
8792;DHT22;4432;50.890;4.744;2023-04-03T12:57:19;10.30;36.80
8792;DHT22;4432;50.890;4.744;2023-04-03T12:59:46;10.30;42.30
8792;DHT22;4432;50.890;4.744;2023-04-03T13:02:32;10.40;41.40
8792;DHT22;4432;50.890;4.744;2023-04-03T13:05:07;10.40;42.30
8792;DHT22;4432;50.890;4.744;2023-04-03T13:07:36;10.50;43.20
8792;DHT22;4432;50.890;4.744;2023-04-03T13:10:24;10.60;42.90
8792;DHT22;4432;50.890;4.744;2023-04-03T13:12:56;10.50;42.40
8792;DHT22;4432;50.890;4.744;2023-04-03T13:15:28;10.70;38.70
8792;DHT22;4432;50.890;4.744;2023-04-03T13:17:54;10.30;33.80
8792;DHT22;4432;50.890;4.744;2023-04-03T13:23:07;10.10;40.30
8792;DHT22;4432;50.890;4.744;2023-04-03T13:25:36;10.20;39.10
8792;DHT22;4432;50.890;4.744;2023-04-03T13:28:04;10.00;40.20
8792;DHT22;4432;50.890;4.744;2023-04-03T13:30:36;10.20;35.80
8792;DHT22;4432;50.890;4.744;2023-04-03T13:33:05;10.40;40.50
8792;DHT22;4432;50.890;4.744;2023-04-03T13:35:39;10.70;40.20
8792;DHT22;4432;50.890;4.744;2023-04-03T13:38:24;10.80;36.70
8792;DHT22;4432;50.890;4.744;2023-04-03T13:40:55;10.80;37.20
8792;DHT22;4432;50.890;4.744;2023-04-03T13:43:35;11.00;36.20
8792;DHT22;4432;50.890;4.744;2023-04-03T13:46:24;10.70;29.70
8792;DHT22;4432;50.890;4.744;2023-04-03T13:48:52;10.60;29.00
8792;DHT22;4432;50.890;4.744;2023-04-03T13:51:25;10.40;37.40
8792;DHT22;4432;50.890;4.744;2023-04-03T13:53:58;10.50;32.30
8792;DHT22;4432;50.890;4.744;2023-04-03T13:56:36;10.70;38.50
8792;DHT22;4432;50.890;4.744;2023-04-03T14:01:55;10.40;30.40
8792;DHT22;4432;50.890;4.744;2023-04-03T14:04:32;10.40;33.50
8792;DHT22;4432;50.890;4.744;2023-04-03T14:06:58;10.80;34.80
8792;DHT22;4432;50.890;4.744;2023-04-03T14:09:26;10.80;32.60
8792;DHT22;4432;50.890;4.744;2023-04-03T14:11:55;10.60;32.10
8792;DHT22;4432;50.890;4.744;2023-04-03T14:14:30;10.60;32.50
8792;DHT22;4432;50.890;4.744;2023-04-03T14:16:59;10.70;32.00
8792;DHT22;4432;50.890;4.744;2023-04-03T14:19:29;10.50;30.00
8792;DHT22;4432;50.890;4.744;2023-04-03T14:21:55;10.50;30.70
8792;DHT22;4432;50.890;4.744;2023-04-03T14:24:22;10.50;27.80
8792;DHT22;4432;50.890;4.744;2023-04-03T14:26:50;10.60;31.60
8792;DHT22;4432;50.890;4.744;2023-04-03T14:29:17;10.70;34.80
8792;DHT22;4432;50.890;4.744;2023-04-03T14:31:44;10.80;37.70
8792;DHT22;4432;50.890;4.744;2023-04-03T14:34:11;10.60;35.80
8792;DHT22;4432;50.890;4.744;2023-04-03T14:36:38;10.60;35.90
8792;DHT22;4432;50.890;4.744;2023-04-03T14:39:05;10.60;33.90
8792;DHT22;4432;50.890;4.744;2023-04-03T14:41:32;10.70;34.40
8792;DHT22;4432;50.890;4.744;2023-04-03T14:43:58;10.80;36.10
8792;DHT22;4432;50.890;4.744;2023-04-03T14:46:34;10.80;33.10
8792;DHT22;4432;50.890;4.744;2023-04-03T14:49:01;10.80;34.60
8792;DHT22;4432;50.890;4.744;2023-04-03T14:51:27;10.90;35.50
8792;DHT22;4432;50.890;4.744;2023-04-03T14:53:53;10.70;32.10
8792;DHT22;4432;50.890;4.744;2023-04-03T14:56:25;10.60;32.10
8792;DHT22;4432;50.890;4.744;2023-04-03T14:58:56;10.60;34.40
8792;DHT22;4432;50.890;4.744;2023-04-03T15:01:22;10.70;36.70
8792;DHT22;4432;50.890;4.744;2023-04-03T15:03:49;10.80;38.20
8792;DHT22;4432;50.890;4.744;2023-04-03T15:06:15;10.70;34.40
8792;DHT22;4432;50.890;4.744;2023-04-03T15:08:42;10.60;37.20
8792;DHT22;4432;50.890;4.744;2023-04-03T15:11:10;10.70;38.10
8792;DHT22;4432;50.890;4.744;2023-04-03T15:13:36;10.50;34.80
8792;DHT22;4432;50.890;4.744;2023-04-03T15:16:02;10.50;34.80
8792;DHT22;4432;50.890;4.744;2023-04-03T15:18:35;10.50;36.40
8792;DHT22;4432;50.890;4.744;2023-04-03T15:21:04;10.50;38.20
8792;DHT22;4432;50.890;4.744;2023-04-03T15:23:29;10.60;38.70
8792;DHT22;4432;50.890;4.744;2023-04-03T15:25:55;10.70;39.80
8792;DHT22;4432;50.890;4.744;2023-04-03T15:28:28;10.70;40.10
8792;DHT22;4432;50.890;4.744;2023-04-03T15:30:55;10.70;42.00
8792;DHT22;4432;50.890;4.744;2023-04-03T15:33:21;10.60;35.80
8792;DHT22;4432;50.890;4.744;2023-04-03T15:35:47;10.50;38.30
8792;DHT22;4432;50.890;4.744;2023-04-03T15:38:13;10.50;37.70
8792;DHT22;4432;50.890;4.744;2023-04-03T15:40:39;10.50;39.60
8792;DHT22;4432;50.890;4.744;2023-04-03T15:43:06;10.50;40.50
8792;DHT22;4432;50.890;4.744;2023-04-03T15:45:34;10.40;41.10
8792;DHT22;4432;50.890;4.744;2023-04-03T15:48:01;10.40;39.00
8792;DHT22;4432;50.890;4.744;2023-04-03T15:50:27;10.30;42.50
8792;DHT22;4432;50.890;4.744;2023-04-03T15:52:53;10.30;41.50
8792;DHT22;4432;50.890;4.744;2023-04-03T15:55:25;10.30;42.40
8792;DHT22;4432;50.890;4.744;2023-04-03T15:57:52;10.30;38.60
8792;DHT22;4432;50.890;4.744;2023-04-03T16:00:19;10.20;41.30
8792;DHT22;4432;50.890;4.744;2023-04-03T16:02:46;10.20;42.10
8792;DHT22;4432;50.890;4.744;2023-04-03T16:05:13;10.30;41.30
8792;DHT22;4432;50.890;4.744;2023-04-03T16:07:39;10.00;39.50
8792;DHT22;4432;50.890;4.744;2023-04-03T16:10:07;9.90;39.20
8792;DHT22;4432;50.890;4.744;2023-04-03T16:12:33;9.90;42.20
8792;DHT22;4432;50.890;4.744;2023-04-03T16:14:59;10.00;41.20
8792;DHT22;4432;50.890;4.744;2023-04-03T16:17:26;10.10;43.20
8792;DHT22;4432;50.890;4.744;2023-04-03T16:19:54;10.10;44.20
8792;DHT22;4432;50.890;4.744;2023-04-03T16:22:21;10.10;44.80
8792;DHT22;4432;50.890;4.744;2023-04-03T16:24:47;10.10;43.60
8792;DHT22;4432;50.890;4.744;2023-04-03T16:27:13;10.10;43.60
8792;DHT22;4432;50.890;4.744;2023-04-03T16:29:38;10.10;43.40
8792;DHT22;4432;50.890;4.744;2023-04-03T16:32:04;10.00;43.10
8792;DHT22;4432;50.890;4.744;2023-04-03T16:34:30;9.80;44.40
8792;DHT22;4432;50.890;4.744;2023-04-03T16:36:58;9.80;46.70
8792;DHT22;4432;50.890;4.744;2023-04-03T16:39:23;9.80;42.80
8792;DHT22;4432;50.890;4.744;2023-04-03T16:41:49;9.80;43.60
8792;DHT22;4432;50.890;4.744;2023-04-03T16:44:15;9.80;40.90
8792;DHT22;4432;50.890;4.744;2023-04-03T16:46:41;9.70;42.60
8792;DHT22;4432;50.890;4.744;2023-04-03T16:49:07;9.60;40.70
8792;DHT22;4432;50.890;4.744;2023-04-03T16:51:32;9.60;40.80
8792;DHT22;4432;50.890;4.744;2023-04-03T16:53:58;9.60;46.10
8792;DHT22;4432;50.890;4.744;2023-04-03T16:56:24;9.60;44.00
8792;DHT22;4432;50.890;4.744;2023-04-03T16:58:52;9.50;41.10
8792;DHT22;4432;50.890;4.744;2023-04-03T17:01:20;9.50;42.00
8792;DHT22;4432;50.890;4.744;2023-04-03T17:03:47;9.40;43.60
8792;DHT22;4432;50.890;4.744;2023-04-03T17:06:16;9.40;42.00
8792;DHT22;4432;50.890;4.744;2023-04-03T17:08:44;9.30;43.00
8792;DHT22;4432;50.890;4.744;2023-04-03T17:11:10;9.30;46.10
8792;DHT22;4432;50.890;4.744;2023-04-03T17:13:36;9.30;43.10
8792;DHT22;4432;50.890;4.744;2023-04-03T17:16:03;9.20;43.00
8792;DHT22;4432;50.890;4.744;2023-04-03T17:18:32;9.20;44.40
8792;DHT22;4432;50.890;4.744;2023-04-03T17:20:58;9.10;46.10
8792;DHT22;4432;50.890;4.744;2023-04-03T17:23:25;9.10;44.10
8792;DHT22;4432;50.890;4.744;2023-04-03T17:25:52;9.00;43.90
8792;DHT22;4432;50.890;4.744;2023-04-03T17:28:20;9.00;43.60
8792;DHT22;4432;50.890;4.744;2023-04-03T17:30:47;8.90;44.70
8792;DHT22;4432;50.890;4.744;2023-04-03T17:33:13;8.80;46.60
8792;DHT22;4432;50.890;4.744;2023-04-03T17:35:39;8.70;47.10
8792;DHT22;4432;50.890;4.744;2023-04-03T17:38:04;8.70;44.20
8792;DHT22;4432;50.890;4.744;2023-04-03T17:40:30;8.60;45.40
8792;DHT22;4432;50.890;4.744;2023-04-03T17:42:56;8.60;45.50
8792;DHT22;4432;50.890;4.744;2023-04-03T17:45:22;8.50;44.40
8792;DHT22;4432;50.890;4.744;2023-04-03T17:47:50;8.40;46.30
8792;DHT22;4432;50.890;4.744;2023-04-03T17:50:17;8.40;46.30
8792;DHT22;4432;50.890;4.744;2023-04-03T17:52:43;8.30;46.20
8792;DHT22;4432;50.890;4.744;2023-04-03T17:55:09;8.30;44.40
8792;DHT22;4432;50.890;4.744;2023-04-03T17:57:35;8.20;46.10
8792;DHT22;4432;50.890;4.744;2023-04-03T18:00:01;8.20;46.80
8792;DHT22;4432;50.890;4.744;2023-04-03T18:02:26;8.10;45.50
8792;DHT22;4432;50.890;4.744;2023-04-03T18:04:52;8.10;47.80
8792;DHT22;4432;50.890;4.744;2023-04-03T18:07:19;7.90;49.60
8792;DHT22;4432;50.890;4.744;2023-04-03T18:09:46;7.90;47.90
8792;DHT22;4432;50.890;4.744;2023-04-03T18:12:12;7.80;50.90
8792;DHT22;4432;50.890;4.744;2023-04-03T18:14:39;7.70;50.90
8792;DHT22;4432;50.890;4.744;2023-04-03T18:17:06;7.70;50.30
8792;DHT22;4432;50.890;4.744;2023-04-03T18:19:32;7.70;50.30
8792;DHT22;4432;50.890;4.744;2023-04-03T18:22:02;7.60;49.70
8792;DHT22;4432;50.890;4.744;2023-04-03T18:24:31;7.60;49.90
8792;DHT22;4432;50.890;4.744;2023-04-03T18:27:04;7.60;51.80
8792;DHT22;4432;50.890;4.744;2023-04-03T18:29:33;7.50;50.40
8792;DHT22;4432;50.890;4.744;2023-04-03T18:32:00;7.40;50.60